Neavitt, Maryland
Current Conditions -  °F | °C
As of 8:50 AM on Friday 28 Nov 2014 (Local Time) from KESN Reporting Station
Clear Clear  
Wind Chill: 30°   Ceiling: Unl
Heat Index: 37°   Visibility: 10mi
Dew Point: 27°   Wind: 12mph
Humidity: 65%   Direction: 320°NW
Pressure: 30.31"   Gusts: 20mph
Location:  38.73°N, 76.28°W
Report Text: KESN 281350Z 32010G17KT 10SM SKC 03/M03 A3031
Loading
Personal Weather Stations






























Interactive Weather Map New forecast layout! Learn more

10-Day Weather Forecast

Advertisements
Track Severe Weather on mobile